Terminal Aerodrome Forecast
Issued by NWS

Home | Current Version | Previous Version | Text Only | Print | Product List | Glossary On
Versions: 1 2 3 4 5 6 7 8 9 10 11 12 13 14 15 16 17 18 19 20
000
FTUS43 KABR 242300
TAFATY
TAF
KATY 242331Z 2500/2524 16020G28KT P6SM BKN060
     FM250200 15013KT P6SM SCT120
     FM250800 14008KT P6SM SCT120
     FM251600 35011KT P6SM SCT120=

USA.gov is the U.S. government's official web portal to all federal, state and local government web resources and services.